Flight Track Log - Related Links

Times and Time Zones

All times are in EDT time to prevent confusion due to time zone crossing. See the EJA922 flight status page for this flight to view local times or setup timezone preferences in your user account.

Time Position Orientation Groundspeed Altitude Reporting Facility
EDT Latitude Longitude Course Direction KTS MPH feet Rate Location/Type
Sat 02:27:00 PM 43.2640 -113.5302 75° East  Level FlightAware Approximate
Sat 02:28:00 PM 43.2929 -113.3523 75° East  Level FlightAware Approximate
Sat 02:29:00 PM 43.3283 -113.1754 75° East  Level FlightAware Approximate
Sat 02:30:00 PM 43.3637 -112.9984 75° East  Level FlightAware Approximate
Sat 02:30:35 PM 43.3678 -114.3303 78° East 238 274 14,100  Level Salt Lake Center
Sat 02:31:00 PM 43.3991 -112.8213 75° East  Level FlightAware Approximate
Sat 02:31:37 PM 43.3039 -114.3683 203° Southwest 252 290 17,400  Level Salt Lake Center
Sat 02:32:00 PM 43.4316 -112.6431 76° East  Level FlightAware Approximate
Sat 02:32:39 PM 43.2439 -114.2925 137° Southeast 314 361 19,600  Level Salt Lake Center
Sat 02:33:00 PM 43.4559 -112.4629 68° East  Level FlightAware Approximate
Sat 02:33:41 PM 43.2428 -114.1633 91° East 374 430 21,400  Level Salt Lake Center
Sat 02:34:00 PM 43.4956 -112.2879 78° East  Level FlightAware Approximate
Sat 02:34:43 PM 43.2700 -113.9989 77° East 400 460 23,000  Level Salt Lake Center
Sat 02:35:00 PM 43.5234 -112.1079 78° East  Level FlightAware Approximate
Sat 02:35:45 PM 43.2956 -113.8467 77° East 431 496 24,600  Level Salt Lake Center
Sat 02:36:47 PM 43.3261 -113.6597 77° East 449 517 25,000 871 Climbing Salt Lake Center
Sat 02:38:00 PM 43.3479 -113.4385 90° East  Level Estimated
Sat 02:38:51 PM 43.3886 -113.2772 90° East 496 571 27,300  Level Salt Lake Center
Sat 02:39:53 PM 43.4189 -113.1011 77° East 496 571 28,600 1,065 Climbing Salt Lake Center
Sat 02:40:55 PM 43.4519 -112.8903 78° East 503 579 29,500 1,161 Climbing Salt Lake Center
Sat 02:41:57 PM 43.4800 -112.7058 78° East 513 590 31,000 1,403 Climbing Salt Lake Center
Sat 02:42:59 PM 43.5139 -112.4944 77° East 509 586 32,400 1,258 Climbing Salt Lake Center
Sat 02:44:01 PM 43.5425 -112.3094 78° East 516 594 33,600 1,210 Climbing Salt Lake Center
Sat 02:45:03 PM 43.5764 -112.0881 78° East 529 609 34,900 1,258 Climbing Salt Lake Center
Sat 02:46:05 PM 43.6044 -111.8986 78° East 529 609 36,200 1,500 Climbing Salt Lake Center
Sat 02:47:07 PM 43.6383 -111.6758 78° East 532 612 38,000 1,742 Climbing Salt Lake Center
Sat 02:48:09 PM 43.6658 -111.4886 78° East 525 604 39,800 1,452 Climbing Salt Lake Center
Sat 02:49:11 PM 43.6964 -111.2739 79° East 516 594 41,000 581 Climbing Salt Lake Center
Sat 02:50:13 PM 43.7236 -111.0831 79° East 527 606 41,000  Level Salt Lake Center
Sat 02:51:15 PM 43.7572 -110.8478 79° East 558 642 41,000  Level Salt Lake Center
Sat 02:52:18 PM 43.7847 -110.6436 79° East 566 651 41,000  Level Salt Lake Center
Sat 02:53:19 PM 43.8200 -110.3997 79° East 577 664 41,000  Level Salt Lake Center
Sat 02:54:21 PM 43.8400 -110.1914 82° East 574 661 41,000  Level Salt Lake Center
Sat 02:55:23 PM 43.8533 -109.9522 85° East 565 650 41,000  Level Salt Lake Center
Sat 02:56:25 PM 43.8672 -109.7453 85° East 565 650 41,000  Level Salt Lake Center
Sat 02:57:29 PM 43.8822 -109.5019 85° East 568 654 41,000  Level Salt Lake Center
Sat 02:58:29 PM 43.8944 -109.2800 86° East 561 646 41,000  Level Salt Lake Center
Sat 02:59:31 PM 43.9061 -109.0625 86° East 568 654 41,000  Level Salt Lake Center
Sat 03:00:33 PM 43.9183 -108.8472 85° East 565 650 41,000  Level Salt Lake Center
Sat 03:01:35 PM 43.9300 -108.6308 86° East 565 650 41,000  Level Salt Lake Center
Sat 03:02:37 PM 43.9406 -108.4147 86° East 565 650 41,000  Level Salt Lake Center
Sat 03:03:39 PM 43.9514 -108.2000 86° East 563 648 41,000  Level Salt Lake Center
Sat 03:04:41 PM 43.9639 -107.9403 86° East 565 650 41,000  Level Salt Lake Center
Sat 03:05:43 PM 43.9700 -107.7256 88° East 564 649 41,000  Level Salt Lake Center
Sat 03:06:45 PM 43.9742 -107.5097 88° East 563 648 41,000  Level Salt Lake Center
Sat 03:07:47 PM 43.9792 -107.2944 88° East 564 649 41,000  Level Salt Lake Center
Sat 03:08:49 PM 43.9864 -107.0753 87° East 569 655 41,000  Level Salt Lake Center
Sat 03:09:51 PM 43.9914 -106.8144 88° East 567 652 41,000  Level Salt Lake Center
Sat 03:10:53 PM 43.9972 -106.5967 88° East 567 652 41,000  Level Salt Lake Center
Sat 03:11:55 PM 44.0003 -106.3800 89° East 565 650 41,000  Level Salt Lake Center
Sat 03:12:57 PM 44.0014 -106.1622 90° East 566 651 41,000  Level Salt Lake Center
Sat 03:13:59 PM 44.0053 -105.9383 89° East 572 658 41,000  Level Salt Lake Center
Sat 03:15:01 PM 44.0047 -105.6944 90° East 568 654 41,000  Level Salt Lake Center
Sat 03:16:03 PM 44.0042 -105.4858 90° East 564 649 41,000  Level Salt Lake Center
Sat 03:17:05 PM 44.0044 -105.2400 90° East 567 652 41,000  Level Salt Lake Center
Sat 03:18:07 PM 44.0039 -105.0322 90° East 565 650 41,000  Level Salt Lake Center
Sat 03:19:09 PM 44.0017 -104.7881 91° East 565 650 41,000  Level Salt Lake Center
Sat 03:20:11 PM 44.0006 -104.5772 90° East 568 654 41,000  Level Salt Lake Center
Sat 03:21:13 PM 43.9983 -104.3339 91° East 565 650 41,000  Level Salt Lake Center
Sat 03:22:15 PM 43.9964 -104.1264 91° East 562 647 41,000  Level Salt Lake Center
Sat 03:23:17 PM 43.9931 -103.9203 91° East 560 644 41,000  Level Salt Lake Center
Sat 03:24:19 PM 43.9889 -103.6789 91° East 558 642 41,000  Level Salt Lake Center
Sat 03:25:21 PM 43.9861 -103.4711 91° East 560 644 41,000  Level Salt Lake Center
Sat 03:26:46 PM 43.9811 -103.2014 91° East 554 638 41,000  Level Denver Center
Sat 03:27:48 PM 43.9747 -102.9264 92° East 556 640 41,000  Level Denver Center
Sat 03:28:50 PM 43.9686 -102.7053 92° East 553 636 41,000  Level Denver Center
Sat 03:29:52 PM 43.9617 -102.4914 93° East 555 639 41,000  Level Denver Center
Sat 03:30:54 PM 43.9525 -102.2761 93° East 558 642 41,000  Level Denver Center
Sat 03:31:56 PM 43.9433 -102.0631 93° East 557 641 41,000  Level Denver Center
Sat 03:32:57 PM 43.9372 -101.8519 92° East 553 636 41,000  Level Denver Center
Sat 03:33:59 PM 43.9331 -101.6444 92° East 547 629 41,000  Level Denver Center
Sat 03:35:01 PM 43.9233 -101.4347 94° East 548 631 41,000  Level Denver Center
Sat 03:35:47 PM 43.9183 -101.2689 92° East 547 629 41,000  Level Minneapolis Center
Sat 03:36:49 PM 43.9097 -101.0611 93° East 544 626 41,000  Level Minneapolis Center
Sat 03:37:51 PM 43.8989 -100.8117 93° East 542 624 41,000  Level Minneapolis Center
Sat 03:38:53 PM 43.8894 -100.6047 94° East 540 621 41,000  Level Minneapolis Center
Sat 03:39:54 PM 43.8817 -100.4375 94° East 543 625 41,000  Level Minneapolis Center
Sat 03:40:56 PM 43.8692 -100.1917 94° East 540 621 41,000  Level Minneapolis Center
Sat 03:41:58 PM 43.8600 -99.9861 93° East 538 619 41,000  Level Minneapolis Center
Sat 03:43:00 PM 43.8486 -99.7797 94° East 539 620 41,000  Level Minneapolis Center
Sat 03:44:02 PM 43.8342 -99.5306 95° East 542 624 41,000  Level Minneapolis Center
Sat 03:45:04 PM 43.8231 -99.3258 94° East 537 618 41,000  Level Minneapolis Center
Sat 03:46:06 PM 43.8117 -99.1183 94° East 541 623 41,000  Level Minneapolis Center
Sat 03:47:07 PM 43.7994 -98.9142 95° East 537 618 41,000  Level Minneapolis Center
Sat 03:48:09 PM 43.7861 -98.7081 95° East 539 620 41,000  Level Minneapolis Center
Sat 03:49:11 PM 43.7719 -98.4833 95° East 541 623 41,000  Level Minneapolis Center
Sat 03:50:13 PM 43.7589 -98.2778 95° East 540 621 41,000  Level Minneapolis Center
Sat 03:51:14 PM 43.7447 -98.0744 95° East 535 616 41,000  Level Minneapolis Center
Sat 03:52:16 PM 43.7300 -97.8703 96° East 536 617 41,000  Level Minneapolis Center
Sat 03:53:18 PM 43.7131 -97.6281 95° East 532 612 41,000  Level Minneapolis Center
Sat 03:54:20 PM 43.6975 -97.4258 96° East 532 612 41,000  Level Minneapolis Center
Sat 03:55:22 PM 43.6822 -97.2247 96° East 530 610 41,000  Level Minneapolis Center
Sat 03:56:23 PM 43.6672 -97.0233 96° East 532 612 41,000  Level Minneapolis Center
Sat 03:57:25 PM 43.6506 -96.8219 96° East 533 613 41,000  Level Minneapolis Center
Sat 03:58:27 PM 43.5931 -96.6383 113° Southeast 532 612 41,000  Level Minneapolis Center
Sat 03:59:29 PM 43.5606 -96.4022 101° East 538 619 41,000  Level Minneapolis Center
Sat 04:00:30 PM 43.5544 -96.1981 92° East 539 620 41,000  Level Minneapolis Center
Sat 04:01:32 PM 43.5486 -95.9981 92° East 532 612 41,000  Level Minneapolis Center
Sat 04:02:46 PM 43.5422 -95.7981 92° East 530 610 41,000  Level Minneapolis Center
Sat 04:03:48 PM 43.5339 -95.5578 93° East 527 606 41,000  Level Minneapolis Center
Sat 04:05:02 PM 43.5247 -95.3178 93° East 527 606 41,000  Level Minneapolis Center
Sat 04:06:04 PM 43.5161 -95.0806 93° East 522 601 41,000  Level Minneapolis Center
Sat 04:07:06 PM 43.5072 -94.8808 93° East 524 603 41,000  Level Minneapolis Center
Sat 04:08:08 PM 43.4986 -94.6839 93° East 521 600 41,000  Level Minneapolis Center
Sat 04:09:10 PM 43.4900 -94.4881 93° East 515 593 41,000  Level Minneapolis Center
Sat 04:10:12 PM 43.4806 -94.2939 94° East 512 589 41,000  Level Minneapolis Center
Sat 04:11:14 PM 43.4686 -94.0672 94° East 516 594 41,000  Level Minneapolis Center
Sat 04:12:15 PM 43.4586 -93.8747 94° East 513 590 41,000  Level Minneapolis Center
Sat 04:13:17 PM 43.4497 -93.6800 94° East 512 589 41,000  Level Minneapolis Center
Sat 04:14:19 PM 43.4394 -93.4872 94° East 512 589 41,000  Level Minneapolis Center
Sat 04:15:21 PM 43.4289 -93.2942 94° East 510 587 41,000  Level Minneapolis Center
Sat 04:16:23 PM 43.4150 -93.0619 95° East 512 589 41,000  Level Minneapolis Center
Sat 04:17:25 PM 43.4042 -92.8672 94° East 514 592 41,000 -145 Level Minneapolis Center
Sat 04:18:27 PM 43.3931 -92.6739 94° East 513 590 40,700 -878 Descending Minneapolis Center
Sat 04:19:28 PM 43.3806 -92.4817 95° East 510 587 39,200 -1,463 Descending Minneapolis Center
Sat 04:20:30 PM 43.3686 -92.2900 95° East 507 583 37,700 -1,452 Descending Minneapolis Center
Sat 04:21:32 PM 43.3569 -92.0992 95° East 506 582 36,200 -1,597 Descending Minneapolis Center
Sat 04:22:34 PM 43.3417 -91.8669 95° East 510 587 34,400 -1,597 Descending Minneapolis Center
Sat 04:23:36 PM 43.3286 -91.6725 95° East 511 588 32,900 -1,452 Descending Minneapolis Center
Sat 04:24:38 PM 43.3158 -91.4858 95° East 501 577 31,400 -1,500 Descending Minneapolis Center
Sat 04:25:40 PM 43.3028 -91.3044 96° East 486 559 29,800 -1,500 Descending Minneapolis Center
Sat 04:26:18 PM 43.2939 -91.2003 97° East 479 551 28,900 -1,440 Descending Chicago Center
Sat 04:27:20 PM 43.2811 -91.0214 96° East 475 547 27,400 -1,597 Descending Chicago Center
Sat 04:28:22 PM 43.2656 -90.8108 96° East 467 537 25,600 -1,597 Descending Chicago Center
Sat 04:29:24 PM 43.2528 -90.6381 96° East 461 531 24,100 -1,500 Descending Chicago Center
Sat 04:30:26 PM 43.2378 -90.4672 97° East 457 526 22,500 -1,742 Descending Chicago Center
Sat 04:31:28 PM 43.2242 -90.2986 96° East 451 519 20,500 -2,274 Descending Chicago Center
Sat 04:32:30 PM 43.2083 -90.1222 97° East 443 510 17,800 -2,400 Descending Chicago Center
Sat 04:33:33 PM 43.1939 -89.9575 97° East 438 504 15,500 -2,496 Descending Chicago Center
Sat 04:34:35 PM 43.1772 -89.7733 97° East 421 484 12,600 -2,177 Descending Chicago Center
Sat 04:35:37 PM 43.1667 -89.6319 96° East 381 438 11,000 -1,306 Descending Chicago Center
Sat 04:36:39 PM 43.1933 -89.5403 68° East 302 348 9,900 -1,839 Descending Chicago Center
Sat 04:37:41 PM 43.2697 -89.5489 355° North 282 325 7,200 -2,710 Descending Chicago Center
Sat 04:38:43 PM 43.3361 -89.5908 335° Northwest 279 321 4,300 -1,887 Descending Chicago Center
Sat 04:39:45 PM 43.3258 -89.5189 101° East 226 260 3,300 -774 Descending Chicago Center
Sat 04:40:47 PM 43.2681 -89.4856 157° South 220 253 2,700 -290 Descending Chicago Center
Sat 04:41:49 PM 43.2208 -89.4367 143° Southeast 217 250 2,700 -290 Level Chicago Center
Sat 04:42:51 PM 43.1864 -89.3939 138° Southeast 193 222 2,100 -677 Descending Chicago Center
Sat 04:43:53 PM 43.1597 -89.3606 138° Southeast 160 184 1,300 -774 Descending Chicago Center

Login

Don't have an account? Register now (free) for customized features, flight alerts, and more!